Time;durP1;ratioP1;P1;durP2;ratioP2;P2;SDS_P1;SDS_P2;PMS_P1;PMS_P2;Temp;Humidity;BMP_temperature;BMP_pressure;BME280_temperature;BME280_humidity;BME280_pressure;Samples;Min_cycle;Max_cycle;Signal;HPM_P1;HPM_P2
2022/09/29 00:01:13;;;;;;;12.17;5.90;;;;;;;;;;6247721;23;20375;-85
2022/09/29 00:03:39;;;;;;;19.77;6.68;;;;;;;;;;6249671;23;20420;-84
2022/09/29 00:06:11;;;;;;;15.10;6.53;;;6.70;99.90;;;;;;6247472;23;20145;-83
2022/09/29 00:08:37;;;;;;;18.85;6.00;;;;;;;;;;6247898;23;20128;-84
2022/09/29 00:11:07;;;;;;;15.70;4.93;;;6.80;99.90;;;;;;6248742;23;20168;-85
2022/09/29 00:13:33;;;;;;;12.73;5.00;;;;;;;;;;6247465;23;20431;-83
2022/09/29 00:16:01;;;;;;;11.50;4.93;;;6.80;99.90;;;;;;6245015;23;20169;-84
2022/09/29 00:18:28;;;;;;;17.30;4.90;;;;;;;;;;6246707;23;20148;-84
2022/09/29 00:20:57;;;;;;;7.47;4.38;;;6.40;99.90;;;;;;6248117;23;20157;-86
2022/09/29 00:23:24;;;;;;;13.88;5.05;;;6.80;99.90;;;;;;6247345;23;20173;-84
2022/09/29 00:26:09;;;;;;;5.90;3.53;;;6.80;99.90;;;;;;6248402;23;20180;-83
2022/09/29 00:28:36;;;;;;;9.75;3.15;;;6.90;99.90;;;;;;6249238;23;20147;-83
2022/09/29 00:31:04;;;;;;;12.98;4.40;;;6.90;99.90;;;;;;6248201;22;20128;-82
2022/09/29 00:33:34;;;;;;;18.25;4.80;;;6.90;99.90;;;;;;6242839;23;20602;-84
2022/09/29 00:36:04;;;;;;;13.50;5.10;;;6.90;99.90;;;;;;6246357;23;20183;-84
2022/09/29 00:38:33;;;;;;;10.18;4.93;;;;;;;;;;6243264;23;20156;-87
2022/09/29 00:41:00;;;;;;;16.98;7.10;;;;;;;;;;6250955;23;20467;-85
2022/09/29 00:44:03;;;;;;;12.25;5.90;;;6.90;99.90;;;;;;6251341;23;20180;-84
2022/09/29 00:46:35;;;;;;;7.47;5.88;;;4.50;99.90;;;;;;6250545;23;20178;-83
2022/09/29 11:28:56;;;;;;;2.70;1.83;;;;;;;;;;6240110;23;20435;-86
2022/09/29 11:31:55;;;;;;;5.90;2.37;;;16.40;99.90;;;;;;6233252;22;20458;-85
2022/09/29 11:34:40;;;;;;;6.67;4.13;;;16.40;99.90;;;;;;6242041;23;20379;-86
2022/09/29 11:37:16;;;;;;;6.60;2.83;;;16.50;99.90;;;;;;6237577;23;20371;-86
2022/09/29 11:40:22;;;;;;;5.50;3.57;;;16.50;99.90;;;;;;6235573;23;20374;-86
2022/09/29 11:43:18;;;;;;;5.10;2.20;;;16.40;99.90;;;;;;6234024;23;20828;-86
2022/09/29 11:46:02;;;;;;;3.00;1.70;;;16.50;99.90;;;;;;6237255;22;20343;-84
2022/09/29 11:48:41;;;;;;;6.23;2.47;;;16.60;99.90;;;;;;6216641;23;20423;-87
2022/09/29 11:51:34;;;;;;;2.57;1.17;;;16.60;99.90;;;;;;6213328;23;20745;-87
2022/09/29 11:54:16;;;;;;;12.50;3.07;;;17.10;99.90;;;;;;6203196;23;20479;-87
2022/09/29 11:56:54;;;;;;;5.77;2.10;;;17.40;99.90;;;;;;6176123;23;20369;-86
2022/09/29 11:59:57;;;;;;;5.17;1.80;;;17.70;99.90;;;;;;6173673;23;20381;-86
2022/09/29 12:02:41;;;;;;;6.40;1.60;;;17.60;99.90;;;;;;6172692;23;20683;-86
2022/09/29 12:05:21;;;;;;;4.33;1.50;;;17.70;99.90;;;;;;6177339;23;20941;-87
2022/09/29 12:07:46;;;;;;;7.93;1.90;;;;;;;;;;6178701;23;20378;-87
2022/09/29 12:10:35;;;;;;;3.40;1.83;;;18.60;99.90;;;;;;6182070;23;20377;-86
2022/09/29 12:13:08;;;;;;;3.73;2.17;;;;;;;;;;6175304;23;20382;-88
2022/09/29 12:16:06;;;;;;;3.60;1.80;;;17.10;99.90;;;;;;6178040;23;20410;-87
2022/09/29 12:18:49;;;;;;;5.97;1.63;;;17.40;99.90;;;;;;6176434;23;20389;-87
2022/09/29 12:21:20;;;;;;;8.43;2.40;;;17.50;99.90;;;;;;6179373;23;20423;-86
2022/09/29 12:23:47;;;;;;;3.60;1.97;;;17.60;99.90;;;;;;6170821;23;20421;-86
2022/09/29 12:26:22;;;;;;;3.10;1.50;;;18.30;99.90;;;;;;6175191;23;20887;-88
2022/09/29 12:29:15;;;;;;;6.13;2.97;;;19.10;99.90;;;;;;6176521;23;20397;-87
2022/09/29 12:31:46;;;;;;;6.40;1.83;;;19.50;99.90;;;;;;6177335;23;20953;-87
2022/09/29 12:34:26;;;;;;;2.17;1.23;;;19.80;99.40;;;;;;6174467;23;20456;-88
2022/09/29 12:37:04;;;;;;;2.00;1.33;;;19.80;98.50;;;;;;6169363;23;20586;-85
2022/09/29 12:39:45;;;;;;;5.13;1.80;;;19.30;98.20;;;;;;6167348;23;20911;-87
2022/09/29 12:42:38;;;;;;;2.30;1.10;;;19.80;98.10;;;;;;6165839;23;20381;-88
2022/09/29 12:45:27;;;;;;;3.10;1.70;;;19.40;99.90;;;;;;6170210;23;20429;-85
2022/09/29 12:47:53;;;;;;;2.43;1.53;;;;;;;;;;6173802;23;20397;-84
2022/09/29 12:50:38;;;;;;;4.80;1.60;;;19.00;97.90;;;;;;6172085;23;20444;-86
2022/09/29 12:53:05;;;;;;;10.87;1.83;;;;;;;;;;6167926;23;20385;-87
2022/09/29 12:55:33;;;;;;;1.97;1.47;;;18.10;99.90;;;;;;6168510;23;20465;-86
2022/09/29 12:58:03;;;;;;;8.30;2.00;;;18.30;99.80;;;;;;6169869;23;20430;-85
2022/09/29 13:00:33;;;;;;;3.27;1.70;;;18.40;99.90;;;;;;6174141;23;20824;-86
2022/09/29 13:03:00;;;;;;;6.27;1.83;;;;;;;;;;6173529;23;20366;-86
2022/09/29 13:05:26;;;;;;;2.63;1.80;;;;;;;;;;6168753;23;20524;-85
2022/09/29 13:08:29;;;;;;;2.60;1.33;;;18.00;99.00;;;;;;6169370;23;20702;-85
2022/09/29 13:10:55;;;;;;;2.63;1.43;;;;;;;;;;6166774;23;20618;-86
2022/09/29 13:13:43;;;;;;;3.40;1.80;;;17.70;99.80;;;;;;6167690;23;20378;-86
2022/09/29 13:16:09;;;;;;;6.47;1.93;;;;;;;;;;6167918;23;20416;-85
2022/09/29 13:18:49;;;;;;;2.40;1.40;;;18.40;99.90;;;;;;6172190;23;20369;-86
2022/09/29 13:21:40;;;;;;;2.07;1.30;;;18.50;99.50;;;;;;6164543;23;20463;-84
2022/09/29 13:24:36;;;;;;;3.33;1.30;;;18.40;99.10;;;;;;6168502;23;20483;-85
2022/09/29 13:27:28;;;;;;;3.30;1.57;;;18.30;99.00;;;;;;6171252;23;20871;-85
2022/09/29 13:30:01;;;;;;;2.30;1.00;;;17.80;99.00;;;;;;6170853;23;20377;-86
2022/09/29 13:32:27;;;;;;;2.07;1.60;;;;;;;;;;6171809;23;20405;-87
2022/09/29 13:34:57;;;;;;;8.17;1.50;;;17.60;99.90;;;;;;6169797;23;20510;-86
2022/09/29 13:37:25;;;;;;;2.00;1.57;;;17.80;99.90;;;;;;6165493;23;20382;-85
2022/09/29 13:39:57;;;;;;;2.13;1.50;;;18.10;99.90;;;;;;6164629;23;20377;-87
2022/09/29 13:42:39;;;;;;;4.23;1.70;;;18.30;99.80;;;;;;6166033;23;20381;-88
2022/09/29 13:45:22;;;;;;;4.40;1.63;;;18.00;99.90;;;;;;6166716;23;20440;-86
2022/09/29 13:47:51;;;;;;;2.00;1.20;;;17.50;99.90;;;;;;6169556;23;20847;-87
2022/09/29 13:50:49;;;;;;;6.60;1.57;;;17.10;99.90;;;;;;6166235;23;20724;-86
2022/09/29 13:53:18;;;;;;;3.83;1.57;;;16.50;99.90;;;;;;6195598;23;20441;-86
2022/09/29 13:55:55;;;;;;;3.97;1.90;;;16.50;99.90;;;;;;6169245;23;20949;-88
2022/09/29 13:58:26;;;;;;;2.53;1.70;;;16.40;99.90;;;;;;6169204;23;20481;-84
2022/09/29 14:00:54;;;;;;;5.60;1.87;;;16.50;99.90;;;;;;6162867;23;20460;-86
2022/09/29 14:03:42;;;;;;;1.63;1.23;;;15.90;99.90;;;;;;6163023;23;20421;-85
2022/09/29 14:06:19;;;;;;;4.13;1.73;;;15.80;99.90;;;;;;6189362;23;21327;-84
2022/09/29 14:08:45;;;;;;;1.47;1.30;;;;;;;;;;6166023;23;20376;-84
2022/09/29 14:11:23;;;;;;;2.30;1.40;;;15.30;99.90;;;;;;6166988;23;20392;-87
2022/09/29 14:13:49;;;;;;;4.33;1.77;;;;;;;;;;6160819;23;20370;-85
2022/09/29 14:16:41;;;;;;;3.87;1.70;;;15.10;99.90;;;;;;6169831;23;20415;-86
2022/09/29 14:19:20;;;;;;;2.83;1.57;;;15.20;99.90;;;;;;6169074;23;20388;-84
2022/09/29 14:22:27;;;;;;;4.63;1.53;;;15.20;99.90;;;;;;6165507;23;20445;-87
2022/09/29 14:24:54;;;;;;;8.03;1.80;;;;;;;;;;6160207;23;20444;-85
2022/09/29 14:27:32;;;;;;;3.77;1.33;;;15.20;99.90;;;;;;6163817;23;20824;-85
2022/09/29 14:30:14;;;;;;;7.57;1.87;;;15.10;99.90;;;;;;6165670;23;20389;-84
2022/09/29 14:33:18;;;;;;;3.70;2.27;;;14.80;99.90;;;;;;6165553;23;20445;-84
2022/09/29 14:35:52;;;;;;;4.00;2.10;;;15.20;99.90;;;;;;6168902;23;20886;-86
2022/09/29 14:38:19;;;;;;;3.10;1.33;;;15.40;99.90;;;;;;6163463;23;20373;-86
2022/09/29 14:41:06;;;;;;;2.73;1.23;;;15.30;99.90;;;;;;6168947;23;20746;-84
2022/09/29 14:43:41;;;;;;;3.83;1.83;;;15.30;99.90;;;;;;6167692;23;20990;-85
2022/09/29 14:52:33;;;;;;;9.83;3.03;;;15.10;99.90;;;;;;6172309;23;20863;-86
2022/09/29 14:55:41;;;;;;;4.33;2.30;;;15.30;99.90;;;;;;6167799;23;20467;-84
2022/09/29 14:58:36;;;;;;;7.00;1.90;;;15.70;99.90;;;;;;6176494;23;20399;-87
2022/09/29 15:01:08;;;;;;;7.40;1.93;;;15.40;99.90;;;;;;6179164;23;20459;-86
2022/09/29 15:03:56;;;;;;;2.90;1.70;;;16.00;99.90;;;;;;6177149;23;20405;-87
2022/09/29 15:06:25;;;;;;;6.30;3.33;;;16.00;99.90;;;;;;6145306;23;20412;-84
2022/09/29 15:09:00;;;;;;;7.10;2.30;;;16.00;99.90;;;;;;6165050;23;20730;-86
2022/09/29 15:11:34;;;;;;;4.50;1.60;;;16.00;99.90;;;;;;6170689;23;20364;-87
2022/09/29 15:14:00;;;;;;;4.00;1.97;;;;;;;;;;6166958;23;20383;-85
2022/09/29 15:17:01;;;;;;;5.00;1.83;;;16.10;99.90;;;;;;6172311;23;20412;-87
2022/09/29 15:20:24;;;;;;;5.97;2.00;;;16.40;99.90;;;;;;6180341;23;20879;-86
2022/09/29 15:23:06;;;;;;;3.43;1.50;;;16.30;99.90;;;;;;6120483;23;20387;-86
2022/09/29 15:25:39;;;;;;;5.13;1.70;;;16.30;99.90;;;;;;6096598;23;20862;-86
2022/09/29 15:28:30;;;;;;;7.90;1.90;;;16.20;99.90;;;;;;6143214;23;20385;-86
2022/09/29 15:31:00;;;;;;;6.60;1.50;;;16.30;99.90;;;;;;6180591;23;20405;-87
2022/09/29 15:33:29;;;;;;;3.40;1.70;;;16.30;99.90;;;;;;6175704;23;20373;-85
2022/09/29 15:36:05;;;;;;;3.90;2.07;;;16.40;99.90;;;;;;6199470;23;20420;-85
2022/09/29 15:38:37;;;;;;;8.33;2.37;;;16.40;99.90;;;;;;6193101;23;20377;-84
2022/09/29 15:41:16;;;;;;;5.50;1.67;;;16.00;99.90;;;;;;6174825;23;20393;-87
2022/09/29 15:44:10;;;;;;;2.90;1.23;;;15.60;99.90;;;;;;6179987;23;20405;-88
2022/09/29 15:46:40;;;;;;;6.43;1.90;;;15.40;99.90;;;;;;6177446;23;20413;-86
2022/09/29 15:49:09;;;;;;;2.63;2.43;;;;;;;;;;6173766;23;20745;-87
2022/09/29 15:51:35;;;;;;;7.53;1.70;;;;;;;;;;6179550;23;20404;-88
2022/09/29 15:54:03;;;;;;;9.23;3.67;;;15.20;99.90;;;;;;6174720;23;20381;-89
2022/09/29 15:57:41;;;;;;;22.60;17.33;;;15.20;99.90;;;;;;6174815;23;20759;-87
2022/09/29 15:59:18;;;;;;;5.20;2.57;;;;;;;;;;6179399;23;20408;-87
2022/09/29 16:01:45;;;;;;;3.77;2.27;;;;;;;;;;6172243;23;20386;-86
2022/09/29 16:04:11;;;;;;;3.87;1.90;;;;;;;;;;6178751;23;20520;-88
2022/09/29 16:06:42;;;;;;;5.93;1.67;;;15.10;99.90;;;;;;6179600;23;20583;-87
2022/09/29 16:09:17;;;;;;;2.00;1.50;;;15.00;99.90;;;;;;6178769;23;20393;-87
2022/09/29 16:11:43;;;;;;;7.57;1.60;;;;;;;;;;6178413;23;20385;-85
2022/09/29 16:14:22;;;;;;;2.07;1.63;;;14.60;99.90;;;;;;6181397;23;20382;-86
2022/09/29 16:16:50;;;;;;;6.73;1.70;;;14.60;99.90;;;;;;6181581;23;20381;-86
2022/09/29 16:19:26;;;;;;;3.90;1.37;;;14.20;99.90;;;;;;6180965;23;20694;-87
2022/09/29 16:21:58;;;;;;;3.13;1.40;;;14.50;99.90;;;;;;6179524;23;20381;-86
2022/09/29 16:24:32;;;;;;;3.23;1.77;;;14.30;99.90;;;;;;6181617;23;20436;-88
2022/09/29 16:26:58;;;;;;;3.33;1.47;;;14.00;99.90;;;;;;6182396;23;20449;-87
2022/09/29 16:29:25;;;;;;;5.47;1.70;;;13.90;99.90;;;;;;6182456;23;20453;-85
2022/09/29 16:31:52;;;;;;;2.50;1.73;;;;;;;;;;6183218;23;20424;-87
2022/09/29 16:34:20;;;;;;;4.53;1.77;;;13.70;99.90;;;;;;6185279;23;20824;-87
2022/09/29 16:36:49;;;;;;;10.80;2.50;;;13.60;99.90;;;;;;6180899;23;20441;-85
2022/09/29 16:39:16;;;;;;;8.83;3.00;;;13.50;99.90;;;;;;6180462;23;20609;-88
2022/09/29 16:41:46;;;;;;;18.30;7.43;;;13.10;99.90;;;;;;6182791;23;20727;-87
2022/09/29 16:44:16;;;;;;;5.77;3.37;;;12.60;99.90;;;;;;6182850;23;20556;-87
2022/09/29 16:46:53;;;;;;;3.10;2.03;;;12.30;99.90;;;;;;6182258;23;20405;-87
2022/09/29 16:49:47;;;;;;;10.70;5.47;;;12.10;99.90;;;;;;6181013;23;20373;-86
2022/09/29 16:52:27;;;;;;;8.68;4.05;;;11.90;99.90;;;;;;6180303;23;20378;-87
2022/09/29 16:55:06;;;;;;;4.00;2.42;;;11.70;99.90;;;;;;6181688;23;20177;-87
2022/09/29 16:57:33;;;;;;;6.30;3.17;;;;;;;;;;6181595;23;20164;-86
2022/09/29 17:00:11;;;;;;;7.15;4.38;;;11.40;99.90;;;;;;6182312;23;20149;-88
2022/09/29 17:02:37;;;;;;;6.03;4.47;;;;;;;;;;6181159;23;20153;-86
2022/09/29 17:05:04;;;;;;;9.73;3.83;;;;;;;;;;6180271;23;20636;-89
2022/09/29 17:07:30;;;;;;;6.97;5.28;;;11.00;99.90;;;;;;6179746;23;20381;-89
2022/09/29 17:09:58;;;;;;;7.18;4.22;;;10.80;99.90;;;;;;6201726;23;20636;-89
2022/09/29 17:12:26;;;;;;;7.30;5.88;;;10.70;99.90;;;;;;6179477;23;20153;-88
2022/09/29 17:14:52;;;;;;;7.05;6.28;;;;;;;;;;6179865;23;20170;-87
2022/09/29 17:17:24;;;;;;;9.03;5.23;;;10.30;99.90;;;;;;6180159;23;20161;-88
2022/09/29 17:19:52;;;;;;;10.32;5.88;;;10.20;99.90;;;;;;6181979;23;20389;-88
2022/09/29 17:22:29;;;;;;;9.55;5.22;;;10.10;99.90;;;;;;6183882;23;20154;-85
2022/09/29 17:24:55;;;;;;;8.80;3.30;;;;;;;;;;6185110;23;20236;31
2022/09/29 17:30:06;;;;;;;5.57;1.92;;;;;;;;;;6182728;23;20384;-86
2022/09/29 17:32:34;;;;;;;3.72;2.17;;;;;;;;;;6179031;23;20639;-86
2022/09/29 17:35:00;;;;;;;7.65;2.45;;;;;;;;;;6186712;23;20608;-86
2022/09/29 17:37:26;;;;;;;4.93;2.50;;;;;;;;;;6210057;23;20580;-86
2022/09/29 17:39:52;;;;;;;3.00;2.37;;;;;;;;;;6209465;23;20435;-86
2022/09/29 17:42:18;;;;;;;2.63;2.00;;;;;;;;;;6212592;23;20597;-87
2022/09/29 17:44:47;;;;;;;3.87;2.00;;;;;;;;;;6211734;23;20280;-86
2022/09/29 17:47:17;;;;;;;1.60;1.50;;;9.70;99.90;;;;;;6210020;23;20377;-86
2022/09/29 17:49:43;;;;;;;4.93;2.15;;;9.60;99.90;;;;;;6213313;23;20245;-86
2022/09/29 17:52:13;;;;;;;9.68;5.25;;;9.90;99.90;;;;;;6209842;23;20183;-86
2022/09/29 17:54:40;;;;;;;5.40;3.95;;;;;;;;;;6213438;23;20730;-86
2022/09/29 17:57:06;;;;;;;9.57;4.72;;;9.70;99.90;;;;;;6214137;23;20242;-86
2022/09/29 17:59:37;;;;;;;4.55;2.67;;;9.90;99.90;;;;;;6215408;23;20145;-87
2022/09/29 18:02:10;;;;;;;3.65;2.05;;;9.80;99.90;;;;;;6213399;23;20133;-85
2022/09/29 18:04:38;;;;;;;5.85;2.13;;;;;;;;;;6211937;23;20177;-85
2022/09/29 18:07:04;;;;;;;2.85;2.08;;;;;;;;;;6214492;23;20175;-85
2022/09/29 18:09:30;;;;;;;5.80;2.27;;;;;;;;;;6212954;23;20527;-85
2022/09/29 18:11:57;;;;;;;5.63;4.32;;;;;;;;;;6214715;23;20368;-86
2022/09/29 18:14:24;;;;;;;8.68;2.95;;;;;;;;;;6217099;23;20133;-85
2022/09/29 18:16:49;;;;;;;3.80;2.90;;;10.10;99.90;;;;;;6214942;23;20176;-86
2022/09/29 18:19:16;;;;;;;5.20;3.00;;;10.20;99.90;;;;;;6218799;23;20197;-85
2022/09/29 18:21:42;;;;;;;8.75;3.00;;;10.50;99.90;;;;;;6219202;23;20126;-85
2022/09/29 18:24:08;;;;;;;4.40;3.67;;;;;;;;;;6218227;23;20432;-86
2022/09/29 18:26:35;;;;;;;5.68;3.60;;;;;;;;;;6220425;23;20184;-85
2022/09/29 18:29:11;;;;;;;6.80;3.30;;;10.30;99.90;;;;;;6220145;23;20145;-85
2022/09/29 18:31:37;;;;;;;7.63;4.57;;;;;;;;;;6219482;23;20950;-84
2022/09/29 18:34:03;;;;;;;4.97;2.80;;;;;;;;;;6218835;23;20141;-85
2022/09/29 18:36:29;;;;;;;5.15;3.30;;;;;;;;;;6221396;23;20411;-85
2022/09/29 18:38:55;;;;;;;6.70;4.90;;;10.70;99.90;;;;;;6218145;23;20221;-86
2022/09/29 18:41:22;;;;;;;5.67;2.70;;;;;;;;;;6216985;23;20138;-85
2022/09/29 18:43:48;;;;;;;4.53;2.90;;;10.40;99.90;;;;;;6219799;23;20168;-85
2022/09/29 18:46:14;;;;;;;5.78;3.35;;;10.40;99.90;;;;;;6218385;23;20188;-85
2022/09/29 18:48:40;;;;;;;13.10;4.25;;;10.10;99.90;;;;;;6218435;23;20145;-84
2022/09/29 18:51:06;;;;;;;8.02;4.07;;;10.20;99.90;;;;;;6219110;23;20172;-85
2022/09/29 18:53:32;;;;;;;12.07;5.57;;;10.50;99.90;;;;;;6218899;23;20465;-86
2022/09/29 18:56:01;;;;;;;15.10;8.63;;;10.10;99.90;;;;;;6220062;23;20172;-85
2022/09/29 18:58:27;;;;;;;19.90;13.43;;;;;;;;;;6219086;23;20144;-86
2022/09/29 19:00:54;;;;;;;27.70;15.10;;;10.10;99.90;;;;;;6219144;23;20165;-86
2022/09/29 19:03:22;;;;;;;15.57;9.35;;;10.10;99.90;;;;;;6218074;23;20184;-85
2022/09/29 19:05:49;;;;;;;9.50;4.13;;;10.00;99.90;;;;;;6218357;23;20688;-85
2022/09/29 19:08:16;;;;;;;3.67;3.05;;;9.90;99.90;;;;;;6217972;23;20138;-85
2022/09/29 19:10:48;;;;;;;6.18;4.00;;;9.80;99.90;;;;;;6217931;23;20232;-86
2022/09/29 19:13:15;;;;;;;5.82;4.35;;;;;;;;;;6218864;23;20455;-86
2022/09/29 19:15:42;;;;;;;6.03;2.70;;;;;;;;;;6221157;23;20248;-85
2022/09/29 19:18:09;;;;;;;4.22;2.40;;;9.50;99.90;;;;;;6216150;23;20148;-85
2022/09/29 19:20:35;;;;;;;4.68;2.17;;;9.50;99.90;;;;;;6217615;23;20137;-86
2022/09/29 19:23:01;;;;;;;6.88;2.97;;;;;;;;;;6217168;23;20145;-86
2022/09/29 19:25:31;;;;;;;2.97;2.78;;;9.40;99.90;;;;;;6218933;23;20177;-86
2022/09/29 19:27:57;;;;;;;7.18;3.15;;;9.40;99.90;;;;;;6218055;23;20137;-86
2022/09/29 19:30:24;;;;;;;9.93;3.85;;;9.40;99.90;;;;;;6219866;23;20133;-85
2022/09/29 19:32:51;;;;;;;3.90;3.05;;;;;;;;;;6217049;23;20141;-86
2022/09/29 19:35:20;;;;;;;10.30;3.10;;;9.40;99.90;;;;;;6216717;23;20215;-85
2022/09/29 19:37:46;;;;;;;5.25;3.97;;;9.40;99.90;;;;;;6210566;23;20207;-86
2022/09/29 19:40:24;;;;;;;9.60;5.40;;;9.50;99.90;;;;;;6205849;23;20165;-86
2022/09/29 19:42:50;;;;;;;8.60;5.47;;;;;;;;;;6216208;23;20141;-86
2022/09/29 19:45:17;;;;;;;14.02;5.97;;;9.70;99.90;;;;;;6218731;23;20195;-86
2022/09/29 19:47:43;;;;;;;11.60;5.25;;;9.60;99.90;;;;;;6215443;23;20237;-85
2022/09/29 19:52:54;;;;;;;14.82;8.02;;;9.60;99.90;;;;;;6213211;23;20144;-82
2022/09/29 19:55:20;;;;;;;14.55;7.32;;;9.60;99.90;;;;;;6211202;23;20267;-82
2022/09/29 19:57:46;;;;;;;10.60;7.75;;;9.70;99.90;;;;;;6209357;23;20840;-82
2022/09/29 20:00:15;;;;;;;13.45;7.00;;;9.70;99.90;;;;;;6210213;23;20224;-82
2022/09/29 20:02:43;;;;;;;7.70;5.97;;;;;;;;;;6212596;23;20153;-82
2022/09/29 20:05:09;;;;;;;7.28;4.22;;;9.60;99.90;;;;;;6214251;23;20730;-82
2022/09/29 20:07:36;;;;;;;7.90;5.40;;;9.90;99.90;;;;;;6213622;23;20160;-82
2022/09/29 20:10:03;;;;;;;6.90;5.55;;;9.80;99.90;;;;;;6209543;23;20141;-82
2022/09/29 20:12:29;;;;;;;8.07;5.93;;;;;;;;;;6212026;23;20141;-81
2022/09/29 20:14:55;;;;;;;10.15;5.00;;;;;;;;;;6213280;23;20151;-84
2022/09/29 20:17:21;;;;;;;9.63;5.47;;;;;;;;;;6213577;23;20165;-82
2022/09/29 20:19:47;;;;;;;7.32;5.53;;;;;;;;;;6212592;23;20472;-83
2022/09/29 20:22:14;;;;;;;10.60;7.17;;;;;;;;;;6214186;23;20153;-84
2022/09/29 20:24:40;;;;;;;9.00;5.22;;;;;;;;;;6212583;23;20508;-84
2022/09/29 20:27:06;;;;;;;12.90;6.13;;;;;;;;;;6214417;23;20255;-84
2022/09/29 20:29:32;;;;;;;9.53;5.20;;;;;;;;;;6213784;23;20141;-83
2022/09/29 20:31:59;;;;;;;27.02;10.93;;;;;;;;;;6216736;23;20918;-82
2022/09/29 20:34:25;;;;;;;13.38;8.68;;;;;;;;;;6217686;23;20145;-82
2022/09/29 20:36:51;;;;;;;19.80;10.10;;;;;;;;;;6216968;23;20172;-82
2022/09/29 20:39:17;;;;;;;16.80;10.02;;;10.30;99.90;;;;;;6215397;23;20368;-83
2022/09/29 20:41:43;;;;;;;13.07;7.78;;;10.40;99.90;;;;;;6216291;23;20894;-83
2022/09/29 20:44:10;;;;;;;16.05;9.68;;;10.50;99.90;;;;;;6217722;23;20713;-82
2022/09/29 20:46:36;;;;;;;13.07;8.00;;;10.30;99.90;;;;;;6216643;23;20184;-83
2022/09/29 20:49:02;;;;;;;12.27;6.60;;;;;;;;;;6220340;23;20928;-82
2022/09/29 20:51:28;;;;;;;14.50;8.52;;;10.20;99.90;;;;;;6220177;23;20353;-82
2022/09/29 20:53:57;;;;;;;16.23;8.70;;;10.30;99.90;;;;;;6219684;23;20837;-82
2022/09/29 20:56:29;;;;;;;15.75;7.95;;;10.20;99.90;;;;;;6217410;23;20411;-82
2022/09/29 20:58:55;;;;;;;12.15;8.48;;;;;;;;;;6221147;23;20599;-82
2022/09/29 21:01:22;;;;;;;16.55;9.93;;;;;;;;;;6220891;23;20588;-82
2022/09/29 21:03:49;;;;;;;13.70;8.05;;;;;;;;;;6216137;23;20169;-82
2022/09/29 21:06:16;;;;;;;18.92;8.90;;;;;;;;;;6211714;23;20165;-82
2022/09/29 21:08:42;;;;;;;9.68;7.03;;;;;;;;;;6211195;23;20207;-81
2022/09/29 21:11:08;;;;;;;6.63;4.65;;;;;;;;;;6216879;23;20145;-81
2022/09/29 21:13:34;;;;;;;12.88;6.30;;;;;;;;;;6211722;23;20144;-80
2022/09/29 21:16:01;;;;;;;16.63;8.57;;;10.00;99.90;;;;;;6218394;23;20199;-81
2022/09/29 21:18:27;;;;;;;12.23;6.60;;;9.90;99.90;;;;;;6216300;23;20137;-82
2022/09/29 21:21:08;;;;;;;16.30;9.48;;;9.80;99.90;;;;;;6216965;23;20174;-82
2022/09/29 21:23:36;;;;;;;21.10;14.30;;;9.70;99.90;;;;;;6218855;23;20192;-81
2022/09/29 21:26:03;;;;;;;12.88;5.30;;;;;;;;;;6216891;23;20181;-82
2022/09/29 21:28:29;;;;;;;7.63;4.15;;;;;;;;;;6214284;23;20153;-81
2022/09/29 21:31:12;;;;;;;10.45;5.68;;;9.60;99.90;;;;;;6216116;23;20252;-83
2022/09/29 21:33:40;;;;;;;6.05;4.45;;;9.30;99.90;;;;;;6211374;23;20144;-82
2022/09/29 21:36:09;;;;;;;7.53;4.25;;;9.40;99.90;;;;;;6214763;23;20568;-84
2022/09/29 21:38:37;;;;;;;5.88;4.95;;;9.30;99.90;;;;;;6213696;23;20165;-84
2022/09/29 21:41:03;;;;;;;13.40;7.78;;;;;;;;;;6203773;23;20141;-83
2022/09/29 21:43:29;;;;;;;14.73;7.20;;;;;;;;;;6214609;23;20172;-85
2022/09/29 21:46:00;;;;;;;9.43;5.22;;;9.30;99.90;;;;;;6212498;23;20256;-84
2022/09/29 21:48:26;;;;;;;5.78;3.88;;;;;;;;;;6214392;23;20138;-84
2022/09/29 21:50:52;;;;;;;6.10;4.40;;;;;;;;;;6212876;23;20187;-83
2022/09/29 21:53:18;;;;;;;7.13;4.60;;;;;;;;;;6199687;23;20368;-83
2022/09/29 21:55:44;;;;;;;12.88;7.70;;;;;;;;;;6209078;23;21017;-85
2022/09/29 21:58:09;;;;;;;10.67;7.53;;;;;;;;;;6215580;23;20149;-85
2022/09/29 22:00:37;;;;;;;11.13;8.17;;;9.10;99.90;;;;;;6213033;23;20407;-84
2022/09/29 22:03:03;;;;;;;7.32;5.40;;;9.00;99.90;;;;;;6210596;23;20364;-84
2022/09/29 22:05:30;;;;;;;7.22;4.13;;;;;;;;;;6212665;23;20173;-85
2022/09/29 22:07:56;;;;;;;6.55;4.22;;;;;;;;;;6206952;23;20156;-85
2022/09/29 22:10:22;;;;;;;19.93;8.17;;;;;;;;;;6213440;23;20145;-84
2022/09/29 22:12:48;;;;;;;11.32;5.75;;;;;;;;;;6211300;23;20361;-84
2022/09/29 22:15:14;;;;;;;9.40;4.50;;;;;;;;;;6211653;23;20184;-84
2022/09/29 22:17:40;;;;;;;5.23;4.67;;;;;;;;;;6211184;23;20372;-84
2022/09/29 22:20:06;;;;;;;9.43;5.32;;;8.50;99.90;;;;;;6212517;23;20871;-84
2022/09/29 22:22:32;;;;;;;8.03;4.83;;;;;;;;;;6209805;23;20248;-85
2022/09/29 22:24:57;;;;;;;9.73;5.33;;;8.70;99.90;;;;;;6209917;23;20259;-84
2022/09/29 22:27:23;;;;;;;12.37;4.33;;;;;;;;;;6205982;23;20364;-84
2022/09/29 22:29:49;;;;;;;6.10;3.90;;;;;;;;;;6206056;23;20263;-85
2022/09/29 22:32:15;;;;;;;6.27;3.60;;;;;;;;;;6210521;23;20398;-85
2022/09/29 22:34:42;;;;;;;15.47;4.60;;;;;;;;;;6211873;23;20395;-85
2022/09/29 22:37:08;;;;;;;10.05;4.47;;;;;;;;;;6208898;23;20424;-86
2022/09/29 22:39:33;;;;;;;7.50;3.80;;;8.40;99.90;;;;;;6207165;23;20157;-85
2022/09/29 22:42:00;;;;;;;9.03;5.00;;;;;;;;;;6209638;23;20368;-85
2022/09/29 22:44:26;;;;;;;6.53;3.58;;;;;;;;;;6210540;23;20196;-84
2022/09/29 22:46:52;;;;;;;10.00;4.77;;;;;;;;;;6210694;23;20165;-85
2022/09/29 22:49:17;;;;;;;4.88;4.15;;;8.20;99.90;;;;;;6205761;23;20376;-85
2022/09/29 22:51:43;;;;;;;6.40;3.97;;;;;;;;;;6209431;23;20176;-85
2022/09/29 22:54:09;;;;;;;10.05;4.40;;;;;;;;;;6207806;23;20184;-85
2022/09/29 22:56:35;;;;;;;7.63;4.33;;;;;;;;;;6209303;23;20211;-84
2022/09/29 22:59:03;;;;;;;5.87;4.07;;;8.40;99.90;;;;;;6209615;23;20925;-84
2022/09/29 23:01:29;;;;;;;11.45;4.18;;;;;;;;;;6209118;23;20426;-84
2022/09/29 23:03:55;;;;;;;12.00;4.47;;;;;;;;;;6208738;23;20512;-84
2022/09/29 23:06:21;;;;;;;5.38;3.97;;;;;;;;;;6208153;23;20216;-83
2022/09/29 23:08:47;;;;;;;7.17;4.10;;;;;;;;;;6211171;23;20199;-84
2022/09/29 23:11:18;;;;;;;6.90;4.47;;;8.20;99.90;;;;;;6209621;23;20446;-84
2022/09/29 23:13:44;;;;;;;9.50;4.45;;;8.20;99.90;;;;;;6213827;23;20867;-84
2022/09/29 23:16:11;;;;;;;13.27;4.15;;;8.40;99.90;;;;;;6210742;23;20198;-83
2022/09/29 23:18:42;;;;;;;10.05;4.72;;;;;;;;;;6213617;23;20643;-83
2022/09/29 23:21:08;;;;;;;5.20;4.35;;;;;;;;;;6214108;23;20145;-83
2022/09/29 23:23:35;;;;;;;7.97;4.53;;;;;;;;;;6210123;23;20220;-84
2022/09/29 23:26:01;;;;;;;7.63;5.47;;;;;;;;;;6214512;22;20200;-82
2022/09/29 23:28:28;;;;;;;9.50;5.18;;;;;;;;;;6233930;23;20200;-76
2022/09/29 23:30:54;;;;;;;8.65;4.88;;;;;;;;;;6251458;22;20167;-82
2022/09/29 23:33:20;;;;;;;10.05;4.22;;;;;;;;;;6232516;23;20365;-82
2022/09/29 23:35:46;;;;;;;6.78;4.07;;;;;;;;;;6236946;23;20155;-80
2022/09/29 23:40:57;;;;;;;9.40;5.22;;;;;;;;;;6234287;23;20147;-79
2022/09/29 23:43:23;;;;;;;6.63;3.97;;;;;;;;;;6232899;23;20811;-79
2022/09/29 23:45:49;;;;;;;9.00;5.37;;;;;;;;;;6237047;23;20467;-82
2022/09/29 23:48:15;;;;;;;9.83;5.50;;;;;;;;;;6250326;23;20418;-82
2022/09/29 23:50:44;;;;;;;6.97;4.50;;;7.80;99.90;;;;;;6243690;23;20923;-82
2022/09/29 23:53:11;;;;;;;7.18;4.82;;;9.00;99.90;;;;;;6234447;23;20401;-82
2022/09/29 23:55:37;;;;;;;9.40;5.28;;;;;;;;;;6231077;23;20206;-81
2022/09/29 23:58:03;;;;;;;5.50;4.83;;;;;;;;;;6230236;23;20624;-83
